Suakin — ZCIL — position and weather

sailwx.info

Track history (hours):
 
Tides and Currents Weather Stations Pressure Air Temp Water Temp Dewpoint Dewpoint Depression Visibility Wind Speed Wind Dir Waves Ship Positions

Suakin

Last reported at 2017-Jun-12 17:01 UTC. Time now 2017-Jun-26 00:20 UTC.
Position N 37°50' E 015°18'.
Warning: this ship's position is 13 days out of date.

Length 37 m; draft 2.5 m.

Type: Pleasure craft. MMSI: 319897000.

Date/timePositionNaut miles runAvg speedWind from/ knotsBaromVisibWave heightAir tempDewpointWater temp
2017-Jun-12 17:01N 37°50' E 015°18'0 4.6
2017-Jun-12 17:00N 37°50' E 015°18'610.2
2017-Jun-12 16:27N 37°55' E 015°22'511.3
2017-Jun-12 15:59N 37°59' E 015°26'611.6
2017-Jun-12 15:30N 38°04' E 015°30'611.5
2017-Jun-12 15:01N 38°09' E 015°34'611.9
2017-Jun-12 14:31N 38°14' E 015°36'7 6.9
2017-Jun-12 13:30N 38°21' E 015°33'611.4
2017-Jun-12 13:01N 38°22' E 015°26'611.5
2017-Jun-12 12:30N 38°24' E 015°19'611.5
2017-Jun-12 12:00N 38°25' E 015°12'611.3
2017-Jun-12 11:30N 38°26' E 015°05'510.7
2017-Jun-12 11:00N 38°28' E 014°59'1 0.1
2017-Jun-12 04:51N 38°28' E 014°58'0 0.0
2017-Jun-12 01:27N 38°28' E 014°58'0 0.0
2017-Jun-12 00:45N 38°28' E 014°58'0 0.0
2017-Jun-12 00:27N 38°28' E 014°58'0 0.0
2017-Jun-11 23:57N 38°28' E 014°58'0 0.0
2017-Jun-11 23:21N 38°28' E 014°58'0 0.0
2017-Jun-11 22:51N 38°28' E 014°58'0 0.0
2017-Jun-11 22:15N 38°28' E 014°58'0 0.0
2017-Jun-11 17:39N 38°28' E 014°58'0 0.0
2017-Jun-11 17:27N 38°28' E 014°58'0 0.0
2017-Jun-11 13:39N 38°28' E 014°58'0 0.0
2017-Jun-11 13:21N 38°28' E 014°58'0 0.0
2017-Jun-11 11:00N 38°28' E 014°58'0 0.0
2017-Jun-11 05:27N 38°28' E 014°58'0 0.0
2017-Jun-11 04:57N 38°28' E 014°58'0 0.0
2017-Jun-11 04:27N 38°28' E 014°58'0 0.0
2017-Jun-11 03:51N 38°28' E 014°58'0 0.0
2017-Jun-11 03:27N 38°28' E 014°58'0 0.0
2017-Jun-11 02:57N 38°28' E 014°58'0 0.0
2017-Jun-11 02:09N 38°28' E 014°58'0 0.0
2017-Jun-11 02:00N 38°28' E 014°58'0 0.0
2017-Jun-11 01:27N 38°28' E 014°58'0 0.0
2017-Jun-11 00:57N 38°28' E 014°58'0 0.0
2017-Jun-10 22:27N 38°28' E 014°58'0 0.0
2017-Jun-10 18:42N 38°28' E 014°58'0 0.0
2017-Jun-10 18:18N 38°28' E 014°58'0 0.0
2017-Jun-10 17:35N 38°28' E 014°58'0 0.0
2017-Jun-10 12:27N 38°28' E 014°58'0 0.0
2017-Jun-10 12:00N 38°28' E 014°58'0 0.0
2017-Jun-10 11:30N 38°28' E 014°58'0 0.0
2017-Jun-10 11:00N 38°28' E 014°58'0 0.2
2017-Jun-10 10:29N 38°28' E 014°58'5 7.3
2017-Jun-10 09:50N 38°32' E 015°00'21910.1
2017-Jun-09 12:02N 40°29' E 011°00'111.3
2017-Jun-09 11:55N 40°30' E 010°58'511.2
2017-Jun-09 11:29N 40°32' E 010°53'911.1
2017-Jun-09 10:42N 40°37' E 010°43'210.9
2017-Jun-09 10:29N 40°38' E 010°41'711.0
2017-Jun-09 09:51N 40°42' E 010°33'511.1
2017-Jun-09 09:23N 40°44' E 010°27'411.1
2017-Jun-09 09:00N 40°46' E 010°22'611.2
2017-Jun-09 08:26N 40°50' E 010°15'511.2
2017-Jun-09 07:59N 40°53' E 010°09'511.2
2017-Jun-09 07:30N 40°55' E 010°03'711.0
2017-Jun-09 06:53N 40°59' E 009°56'411.0
2017-Jun-09 06:30N 41°01' E 009°51'711.1
2017-Jun-09 05:52N 41°02' E 009°42'411.1
2017-Jun-09 05:29N 41°03' E 009°36'3 3.4
2017-Jun-09 04:31N 41°03' E 009°32'0 0.0
2017-Jun-08 16:07N 41°03' E 009°32'0 0.0
2017-Jun-08 09:55N 41°03' E 009°32'0 0.0
2017-Jun-08 05:25N 41°03' E 009°32'0 0.0
2017-Jun-08 04:52N 41°03' E 009°32'0 0.0
2017-Jun-08 02:49N 41°03' E 009°32'0 0.0
2017-Jun-08 02:25N 41°03' E 009°32'0 0.0
2017-Jun-08 01:07N 41°03' E 009°32'0 0.1
2017-Jun-08 00:52N 41°03' E 009°32'0 0.0
2017-Jun-08 00:22N 41°03' E 009°32'0 0.0
2017-Jun-07 23:49N 41°03' E 009°32'0 0.0
2017-Jun-07 23:28N 41°03' E 009°32'0 0.0
2017-Jun-07 22:58N 41°03' E 009°32'0 0.0
2017-Jun-07 22:28N 41°03' E 009°32'0 0.0
2017-Jun-07 21:19N 41°03' E 009°32'0 0.0
2017-Jun-07 20:58N 41°03' E 009°32'0 0.0
2017-Jun-07 20:01N 41°03' E 009°32'0 0.0
2017-Jun-07 18:04N 41°03' E 009°32'0 0.0
2017-Jun-07 17:49N 41°03' E 009°32'0 0.0
2017-Jun-07 17:16N 41°03' E 009°32'0 0.0
2017-Jun-07 16:49N 41°03' E 009°32'0 0.0
2017-Jun-07 16:25N 41°03' E 009°32'0 0.0
2017-Jun-07 15:55N 41°03' E 009°32'0 0.0
2017-Jun-07 12:58N 41°03' E 009°32'0 0.0
2017-Jun-07 12:19N 41°03' E 009°32'0 0.0
2017-Jun-07 08:04N 41°03' E 009°32'0 1.7
2017-Jun-07 07:59N 41°03' E 009°32'1 0.1
2017-Jun-06 22:46N 41°02' E 009°32'0 0.1
2017-Jun-06 22:28N 41°02' E 009°32'0 0.0
2017-Jun-06 21:37N 41°02' E 009°32'0 0.1
2017-Jun-06 21:10N 41°02' E 009°32'0 0.0
2017-Jun-06 19:52N 41°02' E 009°32'0 0.0
2017-Jun-06 19:28N 41°02' E 009°32'0 0.1
2017-Jun-06 18:59N 41°02' E 009°32'0 0.0
2017-Jun-06 18:30N 41°02' E 009°32'0 0.1
2017-Jun-06 17:56N 41°02' E 009°32'0 0.0
2017-Jun-06 17:29N 41°02' E 009°32'0 0.0
2017-Jun-06 16:59N 41°02' E 009°32'0 0.0
2017-Jun-06 16:28N 41°02' E 009°32'0 0.0
2017-Jun-06 16:00N 41°02' E 009°32'0 0.0
2017-Jun-06 15:29N 41°02' E 009°32'0 0.0
2017-Jun-06 15:00N 41°02' E 009°32'0 0.0
2017-Jun-06 14:28N 41°02' E 009°32'0 0.0
2017-Jun-06 13:29N 41°02' E 009°32'0 0.0
2017-Jun-06 13:00N 41°02' E 009°32'0 0.0
2017-Jun-06 12:26N 41°02' E 009°32'0 0.0
2017-Jun-06 12:00N 41°02' E 009°32'0 0.0
2017-Jun-06 11:30N 41°02' E 009°32'0 0.0
2017-Jun-06 10:58N 41°02' E 009°32'0 0.0
2017-Jun-06 10:30N 41°02' E 009°32'0 0.0
2017-Jun-06 10:00N 41°02' E 009°32'0 0.0
2017-Jun-06 09:28N 41°02' E 009°32'0 0.0
2017-Jun-06 08:53N 41°02' E 009°32'0 0.0
2017-Jun-06 08:28N 41°02' E 009°32'0 0.0
2017-Jun-06 07:59N 41°02' E 009°32'0 0.0
2017-Jun-06 07:29N 41°02' E 009°32'0 0.0
2017-Jun-06 06:57N 41°02' E 009°32'0 0.0
2017-Jun-06 06:28N 41°02' E 009°32'0 0.1
2017-Jun-06 05:59N 41°02' E 009°32'0 0.0
2017-Jun-06 05:30N 41°02' E 009°32'0 0.0
2017-Jun-06 05:00N 41°02' E 009°32'0 0.0
2017-Jun-06 04:29N 41°02' E 009°32'0 0.0
2017-Jun-06 03:59N 41°02' E 009°32'0 0.0
2017-Jun-06 03:27N 41°02' E 009°32'0 0.0
2017-Jun-06 02:44N 41°02' E 009°32'0 0.0
2017-Jun-06 02:29N 41°02' E 009°32'0 0.0
2017-Jun-06 01:57N 41°02' E 009°32'0 0.0
2017-Jun-06 01:28N 41°02' E 009°32'0 0.0
2017-Jun-06 00:59N 41°02' E 009°32'0 0.0
2017-Jun-06 00:26N 41°02' E 009°32'0 0.0
2017-Jun-05 23:56N 41°02' E 009°32'0 0.0
2017-Jun-05 23:29N 41°02' E 009°32'0 0.0
2017-Jun-05 22:56N 41°02' E 009°32'0 0.0
2017-Jun-05 22:24N 41°02' E 009°32'0 0.0
2017-Jun-05 21:51N 41°02' E 009°32'0 0.0
2017-Jun-05 21:30N 41°02' E 009°32'0 0.0
2017-Jun-05 20:58N 41°02' E 009°32'0 0.0
2017-Jun-05 20:25N 41°02' E 009°32'0 0.0
2017-Jun-05 19:57N 41°02' E 009°32'0 0.0
2017-Jun-05 19:26N 41°02' E 009°32'0 0.0
2017-Jun-05 18:57N 41°02' E 009°32'0 0.0
2017-Jun-05 18:24N 41°02' E 009°32'0 0.0
2017-Jun-05 17:56N 41°02' E 009°32'0 0.0
2017-Jun-05 17:29N 41°02' E 009°32'0 0.0
2017-Jun-05 16:58N 41°02' E 009°32'0 0.0
2017-Jun-05 16:25N 41°02' E 009°32'0 0.0
2017-Jun-05 15:57N 41°02' E 009°32'0 0.0
2017-Jun-05 15:28N 41°02' E 009°32'0 0.0
2017-Jun-05 14:57N 41°02' E 009°32'0 0.0
2017-Jun-05 14:26N 41°02' E 009°32'0 0.0
2017-Jun-05 13:27N 41°02' E 009°32'0 0.0
2017-Jun-05 13:00N 41°02' E 009°32'0 0.0
2017-Jun-05 12:29N 41°02' E 009°32'0 0.0
2017-Jun-05 11:55N 41°02' E 009°32'0 0.0
2017-Jun-05 11:30N 41°02' E 009°32'0 0.0
2017-Jun-05 10:57N 41°02' E 009°32'0 0.1
2017-Jun-05 10:29N 41°02' E 009°32'0 0.0
2017-Jun-05 09:57N 41°02' E 009°32'0 0.0
2017-Jun-05 09:30N 41°02' E 009°32'0 0.0
2017-Jun-05 09:00N 41°02' E 009°32'0 0.0
2017-Jun-05 08:29N 41°02' E 009°32'0 0.0
2017-Jun-05 07:06N 41°02' E 009°32'0 0.0
2017-Jun-05 06:55N 41°02' E 009°32'0 0.0
2017-Jun-05 06:26N 41°02' E 009°32'0 0.0
2017-Jun-05 05:55N 41°02' E 009°32'0 0.0
2017-Jun-05 05:30N 41°02' E 009°32'0 0.0
2017-Jun-05 04:59N 41°02' E 009°32'0 0.0
2017-Jun-05 04:29N 41°02' E 009°32'0 0.0
2017-Jun-05 03:56N 41°02' E 009°32'0 0.0
2017-Jun-05 03:25N 41°02' E 009°32'0 0.0
2017-Jun-05 03:00N 41°02' E 009°32'0 0.1
2017-Jun-05 02:25N 41°02' E 009°32'0 0.0
2017-Jun-05 01:58N 41°02' E 009°32'0 0.0
2017-Jun-05 01:30N 41°02' E 009°32'0 0.0
2017-Jun-05 01:00N 41°02' E 009°32'0 0.0
2017-Jun-05 00:27N 41°02' E 009°32'0 0.0
2017-Jun-05 00:00N 41°02' E 009°32'0 0.0
2017-Jun-04 23:28N 41°02' E 009°32'0 0.0
2017-Jun-04 22:58N 41°02' E 009°32'0 0.0
2017-Jun-04 22:28N 41°02' E 009°32'0 0.0
2017-Jun-04 21:49N 41°02' E 009°32'0 0.0
2017-Jun-04 21:30N 41°02' E 009°32'0 0.0
2017-Jun-04 20:51N 41°02' E 009°32'0 0.0
2017-Jun-04 20:30N 41°02' E 009°32'0 0.0
2017-Jun-04 19:48N 41°02' E 009°32'0 0.1
2017-Jun-04 19:27N 41°02' E 009°32'0 0.0
2017-Jun-04 18:55N 41°02' E 009°32'0 0.0
2017-Jun-04 18:22N 41°02' E 009°32'0 0.0
2017-Jun-04 17:38N 41°02' E 009°32'0 0.0
2017-Jun-04 17:30N 41°02' E 009°32'0 0.0
2017-Jun-04 16:54N 41°02' E 009°32'0 0.0
2017-Jun-04 15:40N 41°02' E 009°32'0 0.0
2017-Jun-04 15:26N 41°02' E 009°32'0 0.0
2017-Jun-04 13:59N 41°02' E 009°32'0 0.0
2017-Jun-04 13:29N 41°02' E 009°32'0 0.1
2017-Jun-04 12:59N 41°02' E 009°32'0 0.0
2017-Jun-04 12:25N 41°02' E 009°32'0 0.0
2017-Jun-04 11:57N 41°02' E 009°32'0 0.0
2017-Jun-04 11:29N 41°02' E 009°32'0 0.0
2017-Jun-04 10:57N 41°02' E 009°32'0 0.0
2017-Jun-04 10:25N 41°02' E 009°32'0 0.0
2017-Jun-04 10:00N 41°02' E 009°32'0 0.0
2017-Jun-04 09:30N 41°02' E 009°32'0 0.0
2017-Jun-04 08:59N 41°02' E 009°32'0 0.0
2017-Jun-04 08:27N 41°02' E 009°32'0 0.0
2017-Jun-04 07:54N 41°02' E 009°32'0 0.0
2017-Jun-04 07:29N 41°02' E 009°32'0 0.0
2017-Jun-04 06:55N 41°02' E 009°32'1 2.0
2017-Jun-04 06:28N 41°03' E 009°32'0 0.0
2017-Jun-04 06:00N 41°03' E 009°32'0 0.0
2017-Jun-04 05:22N 41°03' E 009°32'0 0.0
2017-Jun-04 05:00N 41°03' E 009°32'0 0.0
2017-Jun-04 04:25N 41°03' E 009°32'0 0.0
2017-Jun-04 04:01N 41°03' E 009°32'0 0.0
2017-Jun-04 03:29N 41°03' E 009°32'0 0.0
2017-Jun-04 03:00N 41°03' E 009°32'0 0.0
2017-Jun-04 02:29N 41°03' E 009°32'0 0.0
2017-Jun-04 02:00N 41°03' E 009°32'0 0.0
2017-Jun-04 01:19N 41°03' E 009°32'0 0.0
2017-Jun-04 00:58N 41°03' E 009°32'0 0.0
2017-Jun-04 00:30N 41°03' E 009°32'0 0.0
2017-Jun-04 00:00N 41°03' E 009°32'0 0.1
2017-Jun-03 23:22N 41°03' E 009°32'0 0.0
2017-Jun-03 22:56N 41°03' E 009°32'0 0.0
2017-Jun-03 22:15N 41°03' E 009°32'0 0.0
2017-Jun-03 22:01N 41°03' E 009°32'0 0.0
2017-Jun-03 21:15N 41°03' E 009°32'0 0.0
2017-Jun-03 20:56N 41°03' E 009°32'0 0.0
2017-Jun-03 20:29N 41°03' E 009°32'0 0.0
2017-Jun-03 19:59N 41°03' E 009°32'0 0.0
2017-Jun-03 19:30N 41°03' E 009°32'0 0.0
2017-Jun-03 18:50N 41°03' E 009°32'0 0.0
2017-Jun-03 18:29N 41°03' E 009°32'0 0.0
2017-Jun-03 18:00N 41°03' E 009°32'0 0.0
2017-Jun-03 17:25N 41°03' E 009°32'0 0.0
2017-Jun-03 16:51N 41°03' E 009°32'0 0.0
2017-Jun-03 16:26N 41°03' E 009°32'0 0.0
2017-Jun-03 15:58N 41°03' E 009°32'0 0.0
2017-Jun-03 15:28N 41°03' E 009°32'0 0.0
2017-Jun-03 14:55N 41°03' E 009°32'0 0.0
2017-Jun-03 13:59N 41°03' E 009°32'0 0.0
2017-Jun-03 13:29N 41°03' E 009°32'0 0.1
2017-Jun-03 12:57N 41°03' E 009°32'4 6.5
2017-Jun-03 12:25N 41°06' E 009°35'4 8.5
2017-Jun-03 12:00N 41°09' E 009°34'4 7.2
2017-Jun-03 11:29N 41°10' E 009°29'5 8.8
2017-Jun-03 10:53N 41°12' E 009°22'5 9.1
2017-Jun-03 10:18N 41°15' E 009°17'310.3
2017-Jun-03 10:01N 41°17' E 009°14'611.4
2017-Jun-03 09:29N 41°17' E 009°06'610.6
2017-Jun-03 08:57N 41°17' E 008°58'6 9.9
2017-Jun-03 08:20N 41°20' E 008°51'411.0
2017-Jun-03 08:00N 41°23' E 008°49'1410.9
2017-Jun-03 06:43N 41°36' E 008°44'310.7
2017-Jun-03 06:25N 41°39' E 008°47'2 0.9
2017-Jun-03 04:08N 41°38' E 008°49'0 0.0
2017-Jun-03 03:53N 41°38' E 008°49'0 0.0
2017-Jun-03 03:28N 41°38' E 008°49'0 0.0
2017-Jun-03 02:52N 41°38' E 008°49'0 0.0
2017-Jun-03 02:27N 41°38' E 008°49'0 0.0
2017-Jun-02 23:20N 41°38' E 008°49'0 0.0
2017-Jun-02 22:57N 41°38' E 008°49'0 0.0
2017-Jun-02 22:21N 41°38' E 008°49'0 0.0
2017-Jun-02 22:00N 41°38' E 008°49'0 0.0
2017-Jun-02 21:24N 41°38' E 008°49'0 0.0
2017-Jun-02 20:18N 41°38' E 008°49'0 0.0
2017-Jun-02 19:44N 41°38' E 008°49'0 0.0
2017-Jun-02 19:22N 41°38' E 008°49'  
Track history (hours):
 
Tides and Currents Weather Stations Pressure Air Temp Water Temp Dewpoint Dewpoint Depression Visibility Wind Speed Wind Dir Waves Ship Positions

Suakin

Last reported at 2017-Jun-12 17:01 UTC. Time now 2017-Jun-26 00:20 UTC.
Position N 37°50' E 015°18'.
Warning: this ship's position is 13 days out of date.

Length 37 m; draft 2.5 m.

Type: Pleasure craft. MMSI: 319897000.

Date/timePositionNaut miles runAvg speedWind from/ knotsBaromVisibWave heightAir tempDewpointWater temp
2017-Jun-12 17:01N 37°50' E 015°18'0 4.6
2017-Jun-12 17:00N 37°50' E 015°18'610.2
2017-Jun-12 16:27N 37°55' E 015°22'511.3
2017-Jun-12 15:59N 37°59' E 015°26'611.6
2017-Jun-12 15:30N 38°04' E 015°30'611.5
2017-Jun-12 15:01N 38°09' E 015°34'611.9
2017-Jun-12 14:31N 38°14' E 015°36'7 6.9
2017-Jun-12 13:30N 38°21' E 015°33'611.4
2017-Jun-12 13:01N 38°22' E 015°26'611.5
2017-Jun-12 12:30N 38°24' E 015°19'611.5
2017-Jun-12 12:00N 38°25' E 015°12'611.3
2017-Jun-12 11:30N 38°26' E 015°05'510.7
2017-Jun-12 11:00N 38°28' E 014°59'1 0.1
2017-Jun-12 04:51N 38°28' E 014°58'0 0.0
2017-Jun-12 01:27N 38°28' E 014°58'0 0.0
2017-Jun-12 00:45N 38°28' E 014°58'0 0.0
2017-Jun-12 00:27N 38°28' E 014°58'0 0.0
2017-Jun-11 23:57N 38°28' E 014°58'0 0.0
2017-Jun-11 23:21N 38°28' E 014°58'0 0.0
2017-Jun-11 22:51N 38°28' E 014°58'0 0.0
2017-Jun-11 22:15N 38°28' E 014°58'0 0.0
2017-Jun-11 17:39N 38°28' E 014°58'0 0.0
2017-Jun-11 17:27N 38°28' E 014°58'0 0.0
2017-Jun-11 13:39N 38°28' E 014°58'0 0.0
2017-Jun-11 13:21N 38°28' E 014°58'0 0.0
2017-Jun-11 11:00N 38°28' E 014°58'0 0.0
2017-Jun-11 05:27N 38°28' E 014°58'0 0.0
2017-Jun-11 04:57N 38°28' E 014°58'0 0.0
2017-Jun-11 04:27N 38°28' E 014°58'0 0.0
2017-Jun-11 03:51N 38°28' E 014°58'0 0.0
2017-Jun-11 03:27N 38°28' E 014°58'0 0.0
2017-Jun-11 02:57N 38°28' E 014°58'0 0.0
2017-Jun-11 02:09N 38°28' E 014°58'0 0.0
2017-Jun-11 02:00N 38°28' E 014°58'0 0.0
2017-Jun-11 01:27N 38°28' E 014°58'0 0.0
2017-Jun-11 00:57N 38°28' E 014°58'0 0.0
2017-Jun-10 22:27N 38°28' E 014°58'0 0.0
2017-Jun-10 18:42N 38°28' E 014°58'0 0.0
2017-Jun-10 18:18N 38°28' E 014°58'0 0.0
2017-Jun-10 17:35N 38°28' E 014°58'0 0.0
2017-Jun-10 12:27N 38°28' E 014°58'0 0.0
2017-Jun-10 12:00N 38°28' E 014°58'0 0.0
2017-Jun-10 11:30N 38°28' E 014°58'0 0.0
2017-Jun-10 11:00N 38°28' E 014°58'0 0.2
2017-Jun-10 10:29N 38°28' E 014°58'5 7.3
2017-Jun-10 09:50N 38°32' E 015°00'21910.1
2017-Jun-09 12:02N 40°29' E 011°00'111.3
2017-Jun-09 11:55N 40°30' E 010°58'511.2
2017-Jun-09 11:29N 40°32' E 010°53'911.1
2017-Jun-09 10:42N 40°37' E 010°43'210.9
2017-Jun-09 10:29N 40°38' E 010°41'711.0
2017-Jun-09 09:51N 40°42' E 010°33'511.1
2017-Jun-09 09:23N 40°44' E 010°27'411.1
2017-Jun-09 09:00N 40°46' E 010°22'611.2
2017-Jun-09 08:26N 40°50' E 010°15'511.2
2017-Jun-09 07:59N 40°53' E 010°09'511.2
2017-Jun-09 07:30N 40°55' E 010°03'711.0
2017-Jun-09 06:53N 40°59' E 009°56'411.0
2017-Jun-09 06:30N 41°01' E 009°51'711.1
2017-Jun-09 05:52N 41°02' E 009°42'411.1
2017-Jun-09 05:29N 41°03' E 009°36'3 3.4
2017-Jun-09 04:31N 41°03' E 009°32'0 0.0
2017-Jun-08 16:07N 41°03' E 009°32'0 0.0
2017-Jun-08 09:55N 41°03' E 009°32'0 0.0
2017-Jun-08 05:25N 41°03' E 009°32'0 0.0
2017-Jun-08 04:52N 41°03' E 009°32'0 0.0
2017-Jun-08 02:49N 41°03' E 009°32'0 0.0
2017-Jun-08 02:25N 41°03' E 009°32'0 0.0
2017-Jun-08 01:07N 41°03' E 009°32'0 0.1
2017-Jun-08 00:52N 41°03' E 009°32'0 0.0
2017-Jun-08 00:22N 41°03' E 009°32'0 0.0
2017-Jun-07 23:49N 41°03' E 009°32'0 0.0
2017-Jun-07 23:28N 41°03' E 009°32'0 0.0
2017-Jun-07 22:58N 41°03' E 009°32'0 0.0
2017-Jun-07 22:28N 41°03' E 009°32'0 0.0
2017-Jun-07 21:19N 41°03' E 009°32'0 0.0
2017-Jun-07 20:58N 41°03' E 009°32'0 0.0
2017-Jun-07 20:01N 41°03' E 009°32'0 0.0
2017-Jun-07 18:04N 41°03' E 009°32'0 0.0
2017-Jun-07 17:49N 41°03' E 009°32'0 0.0
2017-Jun-07 17:16N 41°03' E 009°32'0 0.0
2017-Jun-07 16:49N 41°03' E 009°32'0 0.0
2017-Jun-07 16:25N 41°03' E 009°32'0 0.0
2017-Jun-07 15:55N 41°03' E 009°32'0 0.0
2017-Jun-07 12:58N 41°03' E 009°32'0 0.0
2017-Jun-07 12:19N 41°03' E 009°32'0 0.0
2017-Jun-07 08:04N 41°03' E 009°32'0 1.7
2017-Jun-07 07:59N 41°03' E 009°32'1 0.1
2017-Jun-06 22:46N 41°02' E 009°32'0 0.1
2017-Jun-06 22:28N 41°02' E 009°32'0 0.0
2017-Jun-06 21:37N 41°02' E 009°32'0 0.1
2017-Jun-06 21:10N 41°02' E 009°32'0 0.0
2017-Jun-06 19:52N 41°02' E 009°32'0 0.0
2017-Jun-06 19:28N 41°02' E 009°32'0 0.1
2017-Jun-06 18:59N 41°02' E 009°32'0 0.0
2017-Jun-06 18:30N 41°02' E 009°32'0 0.1
2017-Jun-06 17:56N 41°02' E 009°32'0 0.0
2017-Jun-06 17:29N 41°02' E 009°32'0 0.0
2017-Jun-06 16:59N 41°02' E 009°32'0 0.0
2017-Jun-06 16:28N 41°02' E 009°32'0 0.0
2017-Jun-06 16:00N 41°02' E 009°32'0 0.0
2017-Jun-06 15:29N 41°02' E 009°32'0 0.0
2017-Jun-06 15:00N 41°02' E 009°32'0 0.0
2017-Jun-06 14:28N 41°02' E 009°32'0 0.0
2017-Jun-06 13:29N 41°02' E 009°32'0 0.0
2017-Jun-06 13:00N 41°02' E 009°32'0 0.0
2017-Jun-06 12:26N 41°02' E 009°32'0 0.0
2017-Jun-06 12:00N 41°02' E 009°32'0 0.0
2017-Jun-06 11:30N 41°02' E 009°32'0 0.0
2017-Jun-06 10:58N 41°02' E 009°32'0 0.0
2017-Jun-06 10:30N 41°02' E 009°32'0 0.0
2017-Jun-06 10:00N 41°02' E 009°32'0 0.0
2017-Jun-06 09:28N 41°02' E 009°32'0 0.0
2017-Jun-06 08:53N 41°02' E 009°32'0 0.0
2017-Jun-06 08:28N 41°02' E 009°32'0 0.0
2017-Jun-06 07:59N 41°02' E 009°32'0 0.0
2017-Jun-06 07:29N 41°02' E 009°32'0 0.0
2017-Jun-06 06:57N 41°02' E 009°32'0 0.0
2017-Jun-06 06:28N 41°02' E 009°32'0 0.1
2017-Jun-06 05:59N 41°02' E 009°32'0 0.0
2017-Jun-06 05:30N 41°02' E 009°32'0 0.0
2017-Jun-06 05:00N 41°02' E 009°32'0 0.0
2017-Jun-06 04:29N 41°02' E 009°32'0 0.0
2017-Jun-06 03:59N 41°02' E 009°32'0 0.0
2017-Jun-06 03:27N 41°02' E 009°32'0 0.0
2017-Jun-06 02:44N 41°02' E 009°32'0 0.0
2017-Jun-06 02:29N 41°02' E 009°32'0 0.0
2017-Jun-06 01:57N 41°02' E 009°32'0 0.0
2017-Jun-06 01:28N 41°02' E 009°32'0 0.0
2017-Jun-06 00:59N 41°02' E 009°32'0 0.0
2017-Jun-06 00:26N 41°02' E 009°32'0 0.0
2017-Jun-05 23:56N 41°02' E 009°32'0 0.0
2017-Jun-05 23:29N 41°02' E 009°32'0 0.0
2017-Jun-05 22:56N 41°02' E 009°32'0 0.0
2017-Jun-05 22:24N 41°02' E 009°32'0 0.0
2017-Jun-05 21:51N 41°02' E 009°32'0 0.0
2017-Jun-05 21:30N 41°02' E 009°32'0 0.0
2017-Jun-05 20:58N 41°02' E 009°32'0 0.0
2017-Jun-05 20:25N 41°02' E 009°32'0 0.0
2017-Jun-05 19:57N 41°02' E 009°32'0 0.0
2017-Jun-05 19:26N 41°02' E 009°32'0 0.0
2017-Jun-05 18:57N 41°02' E 009°32'0 0.0
2017-Jun-05 18:24N 41°02' E 009°32'0 0.0
2017-Jun-05 17:56N 41°02' E 009°32'0 0.0
2017-Jun-05 17:29N 41°02' E 009°32'0 0.0
2017-Jun-05 16:58N 41°02' E 009°32'0 0.0
2017-Jun-05 16:25N 41°02' E 009°32'0 0.0
2017-Jun-05 15:57N 41°02' E 009°32'0 0.0
2017-Jun-05 15:28N 41°02' E 009°32'0 0.0
2017-Jun-05 14:57N 41°02' E 009°32'0 0.0
2017-Jun-05 14:26N 41°02' E 009°32'0 0.0
2017-Jun-05 13:27N 41°02' E 009°32'0 0.0
2017-Jun-05 13:00N 41°02' E 009°32'0 0.0
2017-Jun-05 12:29N 41°02' E 009°32'0 0.0
2017-Jun-05 11:55N 41°02' E 009°32'0 0.0
2017-Jun-05 11:30N 41°02' E 009°32'0 0.0
2017-Jun-05 10:57N 41°02' E 009°32'0 0.1
2017-Jun-05 10:29N 41°02' E 009°32'0 0.0
2017-Jun-05 09:57N 41°02' E 009°32'0 0.0
2017-Jun-05 09:30N 41°02' E 009°32'0 0.0
2017-Jun-05 09:00N 41°02' E 009°32'0 0.0
2017-Jun-05 08:29N 41°02' E 009°32'0 0.0
2017-Jun-05 07:06N 41°02' E 009°32'0 0.0
2017-Jun-05 06:55N 41°02' E 009°32'0 0.0
2017-Jun-05 06:26N 41°02' E 009°32'0 0.0
2017-Jun-05 05:55N 41°02' E 009°32'0 0.0
2017-Jun-05 05:30N 41°02' E 009°32'0 0.0
2017-Jun-05 04:59N 41°02' E 009°32'0 0.0
2017-Jun-05 04:29N 41°02' E 009°32'0 0.0
2017-Jun-05 03:56N 41°02' E 009°32'0 0.0
2017-Jun-05 03:25N 41°02' E 009°32'0 0.0
2017-Jun-05 03:00N 41°02' E 009°32'0 0.1
2017-Jun-05 02:25N 41°02' E 009°32'0 0.0
2017-Jun-05 01:58N 41°02' E 009°32'0 0.0
2017-Jun-05 01:30N 41°02' E 009°32'0 0.0
2017-Jun-05 01:00N 41°02' E 009°32'0 0.0
2017-Jun-05 00:27N 41°02' E 009°32'0 0.0
2017-Jun-05 00:00N 41°02' E 009°32'0 0.0
2017-Jun-04 23:28N 41°02' E 009°32'0 0.0
2017-Jun-04 22:58N 41°02' E 009°32'0 0.0
2017-Jun-04 22:28N 41°02' E 009°32'0 0.0
2017-Jun-04 21:49N 41°02' E 009°32'0 0.0
2017-Jun-04 21:30N 41°02' E 009°32'0 0.0
2017-Jun-04 20:51N 41°02' E 009°32'0 0.0
2017-Jun-04 20:30N 41°02' E 009°32'0 0.0
2017-Jun-04 19:48N 41°02' E 009°32'0 0.1
2017-Jun-04 19:27N 41°02' E 009°32'0 0.0
2017-Jun-04 18:55N 41°02' E 009°32'0 0.0
2017-Jun-04 18:22N 41°02' E 009°32'0 0.0
2017-Jun-04 17:38N 41°02' E 009°32'0 0.0
2017-Jun-04 17:30N 41°02' E 009°32'0 0.0
2017-Jun-04 16:54N 41°02' E 009°32'0 0.0
2017-Jun-04 15:40N 41°02' E 009°32'0 0.0
2017-Jun-04 15:26N 41°02' E 009°32'0 0.0
2017-Jun-04 13:59N 41°02' E 009°32'0 0.0
2017-Jun-04 13:29N 41°02' E 009°32'0 0.1
2017-Jun-04 12:59N 41°02' E 009°32'0 0.0
2017-Jun-04 12:25N 41°02' E 009°32'0 0.0
2017-Jun-04 11:57N 41°02' E 009°32'0 0.0
2017-Jun-04 11:29N 41°02' E 009°32'0 0.0
2017-Jun-04 10:57N 41°02' E 009°32'0 0.0
2017-Jun-04 10:25N 41°02' E 009°32'0 0.0
2017-Jun-04 10:00N 41°02' E 009°32'0 0.0
2017-Jun-04 09:30N 41°02' E 009°32'0 0.0
2017-Jun-04 08:59N 41°02' E 009°32'0 0.0
2017-Jun-04 08:27N 41°02' E 009°32'0 0.0
2017-Jun-04 07:54N 41°02' E 009°32'0 0.0
2017-Jun-04 07:29N 41°02' E 009°32'0 0.0
2017-Jun-04 06:55N 41°02' E 009°32'1 2.0
2017-Jun-04 06:28N 41°03' E 009°32'0 0.0
2017-Jun-04 06:00N 41°03' E 009°32'0 0.0
2017-Jun-04 05:22N 41°03' E 009°32'0 0.0
2017-Jun-04 05:00N 41°03' E 009°32'0 0.0
2017-Jun-04 04:25N 41°03' E 009°32'0 0.0
2017-Jun-04 04:01N 41°03' E 009°32'0 0.0
2017-Jun-04 03:29N 41°03' E 009°32'0 0.0
2017-Jun-04 03:00N 41°03' E 009°32'0 0.0
2017-Jun-04 02:29N 41°03' E 009°32'0 0.0
2017-Jun-04 02:00N 41°03' E 009°32'0 0.0
2017-Jun-04 01:19N 41°03' E 009°32'0 0.0
2017-Jun-04 00:58N 41°03' E 009°32'0 0.0
2017-Jun-04 00:30N 41°03' E 009°32'0 0.0
2017-Jun-04 00:00N 41°03' E 009°32'0 0.1
2017-Jun-03 23:22N 41°03' E 009°32'0 0.0
2017-Jun-03 22:56N 41°03' E 009°32'0 0.0
2017-Jun-03 22:15N 41°03' E 009°32'0 0.0
2017-Jun-03 22:01N 41°03' E 009°32'0 0.0
2017-Jun-03 21:15N 41°03' E 009°32'0 0.0
2017-Jun-03 20:56N 41°03' E 009°32'0 0.0
2017-Jun-03 20:29N 41°03' E 009°32'0 0.0
2017-Jun-03 19:59N 41°03' E 009°32'0 0.0
2017-Jun-03 19:30N 41°03' E 009°32'0 0.0
2017-Jun-03 18:50N 41°03' E 009°32'0 0.0
2017-Jun-03 18:29N 41°03' E 009°32'0 0.0
2017-Jun-03 18:00N 41°03' E 009°32'0 0.0
2017-Jun-03 17:25N 41°03' E 009°32'0 0.0
2017-Jun-03 16:51N 41°03' E 009°32'0 0.0
2017-Jun-03 16:26N 41°03' E 009°32'0 0.0
2017-Jun-03 15:58N 41°03' E 009°32'0 0.0
2017-Jun-03 15:28N 41°03' E 009°32'0 0.0
2017-Jun-03 14:55N 41°03' E 009°32'0 0.0
2017-Jun-03 13:59N 41°03' E 009°32'0 0.0
2017-Jun-03 13:29N 41°03' E 009°32'0 0.1
2017-Jun-03 12:57N 41°03' E 009°32'4 6.5
2017-Jun-03 12:25N 41°06' E 009°35'4 8.5
2017-Jun-03 12:00N 41°09' E 009°34'4 7.2
2017-Jun-03 11:29N 41°10' E 009°29'5 8.8
2017-Jun-03 10:53N 41°12' E 009°22'5 9.1
2017-Jun-03 10:18N 41°15' E 009°17'310.3
2017-Jun-03 10:01N 41°17' E 009°14'611.4
2017-Jun-03 09:29N 41°17' E 009°06'610.6
2017-Jun-03 08:57N 41°17' E 008°58'6 9.9
2017-Jun-03 08:20N 41°20' E 008°51'411.0
2017-Jun-03 08:00N 41°23' E 008°49'1410.9
2017-Jun-03 06:43N 41°36' E 008°44'310.7
2017-Jun-03 06:25N 41°39' E 008°47'2 0.9
2017-Jun-03 04:08N 41°38' E 008°49'0 0.0
2017-Jun-03 03:53N 41°38' E 008°49'0 0.0
2017-Jun-03 03:28N 41°38' E 008°49'0 0.0
2017-Jun-03 02:52N 41°38' E 008°49'0 0.0
2017-Jun-03 02:27N 41°38' E 008°49'0 0.0
2017-Jun-02 23:20N 41°38' E 008°49'0 0.0
2017-Jun-02 22:57N 41°38' E 008°49'0 0.0
2017-Jun-02 22:21N 41°38' E 008°49'0 0.0
2017-Jun-02 22:00N 41°38' E 008°49'0 0.0
2017-Jun-02 21:24N 41°38' E 008°49'0 0.0
2017-Jun-02 20:18N 41°38' E 008°49'0 0.0
2017-Jun-02 19:44N 41°38' E 008°49'0 0.0
2017-Jun-02 19:22N 41°38' E 008°49'  

Dump ship's entire track history